sensor_id;sensor_type;location;lat;lon;timestamp;temperature;humidity
3550;DHT22;45572;48.804;8.330;2023-08-21T00:00:50;23.50;90.00
3550;DHT22;45572;48.804;8.330;2023-08-21T00:03:22;23.50;90.10
3550;DHT22;45572;48.804;8.330;2023-08-21T00:05:50;23.50;90.20
3550;DHT22;45572;48.804;8.330;2023-08-21T00:08:19;23.40;90.20
3550;DHT22;45572;48.804;8.330;2023-08-21T00:10:46;23.50;90.20
3550;DHT22;45572;48.804;8.330;2023-08-21T00:13:14;23.50;90.30
3550;DHT22;45572;48.804;8.330;2023-08-21T00:15:42;23.40;90.20
3550;DHT22;45572;48.804;8.330;2023-08-21T00:18:10;23.30;90.40
3550;DHT22;45572;48.804;8.330;2023-08-21T00:20:38;23.30;90.50
3550;DHT22;45572;48.804;8.330;2023-08-21T00:23:08;23.20;90.60
3550;DHT22;45572;48.804;8.330;2023-08-21T00:25:37;23.10;90.90
3550;DHT22;45572;48.804;8.330;2023-08-21T00:28:05;23.10;90.90
3550;DHT22;45572;48.804;8.330;2023-08-21T00:30:33;23.10;91.10
3550;DHT22;45572;48.804;8.330;2023-08-21T00:33:01;23.10;91.10
3550;DHT22;45572;48.804;8.330;2023-08-21T00:35:29;23.10;91.30
3550;DHT22;45572;48.804;8.330;2023-08-21T00:37:57;23.10;91.30
3550;DHT22;45572;48.804;8.330;2023-08-21T00:40:24;23.00;91.40
3550;DHT22;45572;48.804;8.330;2023-08-21T00:42:53;23.00;91.50
3550;DHT22;45572;48.804;8.330;2023-08-21T00:45:22;23.00;91.60
3550;DHT22;45572;48.804;8.330;2023-08-21T00:47:50;23.10;91.40
3550;DHT22;45572;48.804;8.330;2023-08-21T00:50:18;23.00;91.20
3550;DHT22;45572;48.804;8.330;2023-08-21T00:52:47;23.00;90.80
3550;DHT22;45572;48.804;8.330;2023-08-21T00:55:15;22.90;91.00
3550;DHT22;45572;48.804;8.330;2023-08-21T00:57:44;22.90;91.30
3550;DHT22;45572;48.804;8.330;2023-08-21T01:00:14;22.80;91.40
3550;DHT22;45572;48.804;8.330;2023-08-21T01:02:42;22.80;91.50
3550;DHT22;45572;48.804;8.330;2023-08-21T01:05:11;22.80;91.60
3550;DHT22;45572;48.804;8.330;2023-08-21T01:07:47;22.90;91.50
3550;DHT22;45572;48.804;8.330;2023-08-21T01:10:22;22.80;91.50
3550;DHT22;45572;48.804;8.330;2023-08-21T01:12:57;22.80;91.60
3550;DHT22;45572;48.804;8.330;2023-08-21T01:15:28;22.80;91.80
3550;DHT22;45572;48.804;8.330;2023-08-21T01:17:57;22.80;91.80
3550;DHT22;45572;48.804;8.330;2023-08-21T01:20:27;22.80;91.60
3550;DHT22;45572;48.804;8.330;2023-08-21T01:22:55;22.80;91.80
3550;DHT22;45572;48.804;8.330;2023-08-21T01:25:24;22.80;91.60
3550;DHT22;45572;48.804;8.330;2023-08-21T01:27:51;22.70;91.50
3550;DHT22;45572;48.804;8.330;2023-08-21T01:30:19;22.70;91.70
3550;DHT22;45572;48.804;8.330;2023-08-21T01:32:53;22.70;91.90
3550;DHT22;45572;48.804;8.330;2023-08-21T01:35:26;22.70;91.90
3550;DHT22;45572;48.804;8.330;2023-08-21T01:37:55;22.60;92.00
3550;DHT22;45572;48.804;8.330;2023-08-21T01:40:24;22.60;92.00
3550;DHT22;45572;48.804;8.330;2023-08-21T01:42:53;22.60;92.10
3550;DHT22;45572;48.804;8.330;2023-08-21T01:45:21;22.60;92.10
3550;DHT22;45572;48.804;8.330;2023-08-21T01:47:50;22.60;92.00
3550;DHT22;45572;48.804;8.330;2023-08-21T01:50:18;22.60;92.00
3550;DHT22;45572;48.804;8.330;2023-08-21T01:52:46;22.50;92.30
3550;DHT22;45572;48.804;8.330;2023-08-21T01:55:14;22.60;92.20
3550;DHT22;45572;48.804;8.330;2023-08-21T01:57:43;22.60;92.00
3550;DHT22;45572;48.804;8.330;2023-08-21T02:00:12;22.60;91.90
3550;DHT22;45572;48.804;8.330;2023-08-21T02:03:04;22.60;91.70
3550;DHT22;45572;48.804;8.330;2023-08-21T02:05:37;22.60;91.60
3550;DHT22;45572;48.804;8.330;2023-08-21T02:08:05;22.50;91.80
3550;DHT22;45572;48.804;8.330;2023-08-21T02:10:34;22.50;92.00
3550;DHT22;45572;48.804;8.330;2023-08-21T02:13:02;22.50;92.10
3550;DHT22;45572;48.804;8.330;2023-08-21T02:15:30;22.50;92.10
3550;DHT22;45572;48.804;8.330;2023-08-21T02:17:58;22.50;92.10
3550;DHT22;45572;48.804;8.330;2023-08-21T02:20:27;22.50;92.00
3550;DHT22;45572;48.804;8.330;2023-08-21T02:22:55;22.50;92.00
3550;DHT22;45572;48.804;8.330;2023-08-21T02:25:22;22.50;92.00
3550;DHT22;45572;48.804;8.330;2023-08-21T02:27:50;22.40;92.20
3550;DHT22;45572;48.804;8.330;2023-08-21T02:30:18;22.40;92.20
3550;DHT22;45572;48.804;8.330;2023-08-21T02:32:46;22.40;92.40
3550;DHT22;45572;48.804;8.330;2023-08-21T02:35:14;22.40;92.20
3550;DHT22;45572;48.804;8.330;2023-08-21T02:37:43;22.40;91.90
3550;DHT22;45572;48.804;8.330;2023-08-21T02:40:11;22.40;92.00
3550;DHT22;45572;48.804;8.330;2023-08-21T02:42:39;22.40;92.10
3550;DHT22;45572;48.804;8.330;2023-08-21T02:45:08;22.30;92.10
3550;DHT22;45572;48.804;8.330;2023-08-21T02:47:37;22.30;92.10
3550;DHT22;45572;48.804;8.330;2023-08-21T02:50:06;22.30;92.10
3550;DHT22;45572;48.804;8.330;2023-08-21T02:52:35;22.30;92.40
3550;DHT22;45572;48.804;8.330;2023-08-21T02:55:05;22.20;92.50
3550;DHT22;45572;48.804;8.330;2023-08-21T02:57:33;22.20;92.40
3550;DHT22;45572;48.804;8.330;2023-08-21T03:00:01;22.10;92.70
3550;DHT22;45572;48.804;8.330;2023-08-21T03:02:29;22.10;92.70
3550;DHT22;45572;48.804;8.330;2023-08-21T03:04:57;22.10;92.80
3550;DHT22;45572;48.804;8.330;2023-08-21T03:07:25;22.10;92.90
3550;DHT22;45572;48.804;8.330;2023-08-21T03:09:53;22.10;93.00
3550;DHT22;45572;48.804;8.330;2023-08-21T03:12:22;22.20;92.90
3550;DHT22;45572;48.804;8.330;2023-08-21T03:14:50;22.20;92.70
3550;DHT22;45572;48.804;8.330;2023-08-21T03:17:18;22.10;92.50
3550;DHT22;45572;48.804;8.330;2023-08-21T03:19:46;22.10;92.50
3550;DHT22;45572;48.804;8.330;2023-08-21T03:22:13;22.00;92.50
3550;DHT22;45572;48.804;8.330;2023-08-21T03:24:42;22.00;92.50
3550;DHT22;45572;48.804;8.330;2023-08-21T03:27:10;22.00;92.60
3550;DHT22;45572;48.804;8.330;2023-08-21T03:29:39;22.00;92.80
3550;DHT22;45572;48.804;8.330;2023-08-21T03:32:07;22.10;92.80
3550;DHT22;45572;48.804;8.330;2023-08-21T03:34:34;22.00;93.00
3550;DHT22;45572;48.804;8.330;2023-08-21T03:37:02;22.10;92.70
3550;DHT22;45572;48.804;8.330;2023-08-21T03:39:31;22.10;92.50
3550;DHT22;45572;48.804;8.330;2023-08-21T03:42:02;22.00;92.50
3550;DHT22;45572;48.804;8.330;2023-08-21T03:44:30;22.00;92.40
3550;DHT22;45572;48.804;8.330;2023-08-21T03:47:00;22.00;92.50
3550;DHT22;45572;48.804;8.330;2023-08-21T03:49:32;21.90;92.70
3550;DHT22;45572;48.804;8.330;2023-08-21T03:52:00;21.80;92.80
3550;DHT22;45572;48.804;8.330;2023-08-21T03:54:27;21.80;92.80
3550;DHT22;45572;48.804;8.330;2023-08-21T03:56:55;21.80;93.00
3550;DHT22;45572;48.804;8.330;2023-08-21T03:59:23;21.70;93.20
3550;DHT22;45572;48.804;8.330;2023-08-21T04:01:53;21.70;93.30
3550;DHT22;45572;48.804;8.330;2023-08-21T04:04:23;21.70;93.40
3550;DHT22;45572;48.804;8.330;2023-08-21T04:06:50;21.80;93.30
3550;DHT22;45572;48.804;8.330;2023-08-21T04:09:18;21.80;93.20
3550;DHT22;45572;48.804;8.330;2023-08-21T04:11:46;21.80;93.20
3550;DHT22;45572;48.804;8.330;2023-08-21T04:14:14;21.80;93.10
3550;DHT22;45572;48.804;8.330;2023-08-21T04:16:42;21.80;93.00
3550;DHT22;45572;48.804;8.330;2023-08-21T04:19:10;21.80;93.00
3550;DHT22;45572;48.804;8.330;2023-08-21T04:21:39;21.80;93.00
3550;DHT22;45572;48.804;8.330;2023-08-21T04:24:07;21.70;93.10
3550;DHT22;45572;48.804;8.330;2023-08-21T04:26:34;21.70;93.20
3550;DHT22;45572;48.804;8.330;2023-08-21T04:29:02;21.70;93.30
3550;DHT22;45572;48.804;8.330;2023-08-21T04:31:30;21.70;93.50
3550;DHT22;45572;48.804;8.330;2023-08-21T04:33:58;21.70;93.40
3550;DHT22;45572;48.804;8.330;2023-08-21T04:36:27;21.70;93.40
3550;DHT22;45572;48.804;8.330;2023-08-21T04:38:57;21.60;93.50
3550;DHT22;45572;48.804;8.330;2023-08-21T04:41:25;21.60;93.60
3550;DHT22;45572;48.804;8.330;2023-08-21T04:43:53;21.60;93.70
3550;DHT22;45572;48.804;8.330;2023-08-21T04:46:22;21.60;93.90
3550;DHT22;45572;48.804;8.330;2023-08-21T04:48:50;21.60;93.90
3550;DHT22;45572;48.804;8.330;2023-08-21T04:51:18;21.60;94.00
3550;DHT22;45572;48.804;8.330;2023-08-21T04:53:47;21.60;93.90
3550;DHT22;45572;48.804;8.330;2023-08-21T04:56:19;21.60;93.80
3550;DHT22;45572;48.804;8.330;2023-08-21T04:58:47;21.70;93.90
3550;DHT22;45572;48.804;8.330;2023-08-21T05:01:17;21.70;93.50
3550;DHT22;45572;48.804;8.330;2023-08-21T05:03:47;21.70;93.50
3550;DHT22;45572;48.804;8.330;2023-08-21T05:06:18;21.80;93.70
3550;DHT22;45572;48.804;8.330;2023-08-21T05:08:48;21.80;93.70
3550;DHT22;45572;48.804;8.330;2023-08-21T05:11:15;21.80;93.40
3550;DHT22;45572;48.804;8.330;2023-08-21T05:13:45;21.80;93.10
3550;DHT22;45572;48.804;8.330;2023-08-21T05:16:16;21.80;93.10
3550;DHT22;45572;48.804;8.330;2023-08-21T05:18:44;21.80;93.40
3550;DHT22;45572;48.804;8.330;2023-08-21T05:21:12;21.80;93.50
3550;DHT22;45572;48.804;8.330;2023-08-21T05:23:41;21.80;93.50
3550;DHT22;45572;48.804;8.330;2023-08-21T05:26:10;21.90;93.60
3550;DHT22;45572;48.804;8.330;2023-08-21T05:28:38;22.00;93.40
3550;DHT22;45572;48.804;8.330;2023-08-21T05:31:07;22.10;92.90
3550;DHT22;45572;48.804;8.330;2023-08-21T05:33:48;22.10;92.70
3550;DHT22;45572;48.804;8.330;2023-08-21T05:36:16;22.20;92.80
3550;DHT22;45572;48.804;8.330;2023-08-21T05:38:44;22.30;92.50
3550;DHT22;45572;48.804;8.330;2023-08-21T05:41:12;22.50;92.30
3550;DHT22;45572;48.804;8.330;2023-08-21T05:43:42;22.60;92.10
3550;DHT22;45572;48.804;8.330;2023-08-21T05:46:14;22.80;91.50
3550;DHT22;45572;48.804;8.330;2023-08-21T05:48:42;22.90;91.20
3550;DHT22;45572;48.804;8.330;2023-08-21T05:51:10;23.00;91.00
3550;DHT22;45572;48.804;8.330;2023-08-21T05:53:38;23.20;90.90
3550;DHT22;45572;48.804;8.330;2023-08-21T05:56:06;23.40;90.30
3550;DHT22;45572;48.804;8.330;2023-08-21T05:58:34;23.60;90.30
3550;DHT22;45572;48.804;8.330;2023-08-21T06:01:06;23.90;90.00
3550;DHT22;45572;48.804;8.330;2023-08-21T06:03:35;24.10;89.20
3550;DHT22;45572;48.804;8.330;2023-08-21T06:06:14;24.30;88.70
3550;DHT22;45572;48.804;8.330;2023-08-21T06:08:42;24.40;87.70
3550;DHT22;45572;48.804;8.330;2023-08-21T06:11:10;24.60;87.40
3550;DHT22;45572;48.804;8.330;2023-08-21T06:13:38;25.00;87.30
3550;DHT22;45572;48.804;8.330;2023-08-21T06:16:06;25.60;85.60
3550;DHT22;45572;48.804;8.330;2023-08-21T06:18:38;26.50;83.80
3550;DHT22;45572;48.804;8.330;2023-08-21T06:21:06;27.30;81.50
3550;DHT22;45572;48.804;8.330;2023-08-21T06:23:35;28.00;79.80
3550;DHT22;45572;48.804;8.330;2023-08-21T06:26:05;28.80;77.90
3550;DHT22;45572;48.804;8.330;2023-08-21T06:28:35;29.20;76.30
3550;DHT22;45572;48.804;8.330;2023-08-21T06:31:03;29.60;75.30
3550;DHT22;45572;48.804;8.330;2023-08-21T06:33:37;30.60;73.90
3550;DHT22;45572;48.804;8.330;2023-08-21T06:36:08;31.30;71.90
3550;DHT22;45572;48.804;8.330;2023-08-21T06:38:37;32.20;70.30
3550;DHT22;45572;48.804;8.330;2023-08-21T06:41:06;33.10;66.60
3550;DHT22;45572;48.804;8.330;2023-08-21T06:43:38;33.90;65.20
3550;DHT22;45572;48.804;8.330;2023-08-21T06:46:12;34.60;63.40
3550;DHT22;45572;48.804;8.330;2023-08-21T06:48:42;35.30;61.70
3550;DHT22;45572;48.804;8.330;2023-08-21T06:51:10;35.90;59.80
3550;DHT22;45572;48.804;8.330;2023-08-21T06:53:41;36.60;57.60
3550;DHT22;45572;48.804;8.330;2023-08-21T06:56:09;37.20;55.10
3550;DHT22;45572;48.804;8.330;2023-08-21T06:58:37;37.50;54.90
3550;DHT22;45572;48.804;8.330;2023-08-21T07:01:05;38.00;54.50
3550;DHT22;45572;48.804;8.330;2023-08-21T07:03:38;38.50;53.50
3550;DHT22;45572;48.804;8.330;2023-08-21T07:06:07;38.70;52.50
3550;DHT22;45572;48.804;8.330;2023-08-21T07:08:40;39.10;53.50
3550;DHT22;45572;48.804;8.330;2023-08-21T07:11:08;39.50;51.90
3550;DHT22;45572;48.804;8.330;2023-08-21T07:13:40;39.80;50.90
3550;DHT22;45572;48.804;8.330;2023-08-21T07:16:08;39.70;50.80
3550;DHT22;45572;48.804;8.330;2023-08-21T07:18:36;40.10;51.30
3550;DHT22;45572;48.804;8.330;2023-08-21T07:21:04;40.60;49.90
3550;DHT22;45572;48.804;8.330;2023-08-21T07:23:55;41.00;50.60
3550;DHT22;45572;48.804;8.330;2023-08-21T07:26:25;41.40;49.60
3550;DHT22;45572;48.804;8.330;2023-08-21T07:28:56;41.60;48.90
3550;DHT22;45572;48.804;8.330;2023-08-21T07:31:26;41.90;47.70
3550;DHT22;45572;48.804;8.330;2023-08-21T07:33:54;41.80;48.90
3550;DHT22;45572;48.804;8.330;2023-08-21T07:36:24;42.00;48.60
3550;DHT22;45572;48.804;8.330;2023-08-21T07:38:52;41.70;48.30
3550;DHT22;45572;48.804;8.330;2023-08-21T07:41:24;41.80;47.50
3550;DHT22;45572;48.804;8.330;2023-08-21T07:43:55;41.80;48.60
3550;DHT22;45572;48.804;8.330;2023-08-21T07:46:24;42.40;47.70
3550;DHT22;45572;48.804;8.330;2023-08-21T07:48:57;43.00;47.00
3550;DHT22;45572;48.804;8.330;2023-08-21T07:51:26;43.40;46.40
3550;DHT22;45572;48.804;8.330;2023-08-21T07:53:54;43.70;46.80
3550;DHT22;45572;48.804;8.330;2023-08-21T07:56:24;44.00;46.30
3550;DHT22;45572;48.804;8.330;2023-08-21T07:58:52;44.20;45.60
3550;DHT22;45572;48.804;8.330;2023-08-21T08:01:20;44.40;45.80
3550;DHT22;45572;48.804;8.330;2023-08-21T08:03:52;44.50;45.50
3550;DHT22;45572;48.804;8.330;2023-08-21T08:06:20;44.60;45.00
3550;DHT22;45572;48.804;8.330;2023-08-21T08:08:50;44.80;44.70
3550;DHT22;45572;48.804;8.330;2023-08-21T08:11:18;45.20;44.10
3550;DHT22;45572;48.804;8.330;2023-08-21T08:13:48;45.30;44.00
3550;DHT22;45572;48.804;8.330;2023-08-21T08:16:16;45.60;43.50
3550;DHT22;45572;48.804;8.330;2023-08-21T08:18:44;45.80;43.50
3550;DHT22;45572;48.804;8.330;2023-08-21T08:21:12;46.10;43.50
3550;DHT22;45572;48.804;8.330;2023-08-21T08:23:39;46.20;43.00
3550;DHT22;45572;48.804;8.330;2023-08-21T08:26:07;46.40;43.10
3550;DHT22;45572;48.804;8.330;2023-08-21T08:28:35;45.80;43.40
3550;DHT22;45572;48.804;8.330;2023-08-21T08:31:04;45.90;43.70
3550;DHT22;45572;48.804;8.330;2023-08-21T08:33:32;46.20;43.60
3550;DHT22;45572;48.804;8.330;2023-08-21T08:36:00;46.50;43.50
3550;DHT22;45572;48.804;8.330;2023-08-21T08:38:28;46.70;41.70
3550;DHT22;45572;48.804;8.330;2023-08-21T08:40:57;46.80;42.60
3550;DHT22;45572;48.804;8.330;2023-08-21T08:43:31;46.80;42.50
3550;DHT22;45572;48.804;8.330;2023-08-21T08:46:00;46.80;42.40
3550;DHT22;45572;48.804;8.330;2023-08-21T08:48:30;47.10;42.20
3550;DHT22;45572;48.804;8.330;2023-08-21T08:50:58;47.30;42.50
3550;DHT22;45572;48.804;8.330;2023-08-21T08:53:27;47.30;42.10
3550;DHT22;45572;48.804;8.330;2023-08-21T08:55:56;47.40;41.80
3550;DHT22;45572;48.804;8.330;2023-08-21T08:58:28;47.10;41.40
3550;DHT22;45572;48.804;8.330;2023-08-21T09:00:56;47.20;42.60
3550;DHT22;45572;48.804;8.330;2023-08-21T09:03:24;47.10;41.00
3550;DHT22;45572;48.804;8.330;2023-08-21T09:05:56;46.80;43.20
3550;DHT22;45572;48.804;8.330;2023-08-21T09:08:26;47.20;42.50
3550;DHT22;45572;48.804;8.330;2023-08-21T09:10:56;47.40;42.90
3550;DHT22;45572;48.804;8.330;2023-08-21T09:13:31;47.60;41.70
3550;DHT22;45572;48.804;8.330;2023-08-21T09:16:01;47.10;41.20
3550;DHT22;45572;48.804;8.330;2023-08-21T09:18:29;46.90;43.40
3550;DHT22;45572;48.804;8.330;2023-08-21T09:21:01;47.00;42.20
3550;DHT22;45572;48.804;8.330;2023-08-21T09:23:31;47.30;42.30
3550;DHT22;45572;48.804;8.330;2023-08-21T09:25:59;47.50;41.90
3550;DHT22;45572;48.804;8.330;2023-08-21T09:28:31;47.50;42.30
3550;DHT22;45572;48.804;8.330;2023-08-21T09:30:59;47.80;42.70
3550;DHT22;45572;48.804;8.330;2023-08-21T09:33:29;47.70;42.30
3550;DHT22;45572;48.804;8.330;2023-08-21T09:35:56;48.10;40.40
3550;DHT22;45572;48.804;8.330;2023-08-21T09:38:26;47.60;42.40
3550;DHT22;45572;48.804;8.330;2023-08-21T09:40:55;47.70;41.00
3550;DHT22;45572;48.804;8.330;2023-08-21T09:43:23;47.80;42.10
3550;DHT22;45572;48.804;8.330;2023-08-21T09:45:53;47.90;41.50
3550;DHT22;45572;48.804;8.330;2023-08-21T09:48:25;46.80;44.20
3550;DHT22;45572;48.804;8.330;2023-08-21T09:50:54;47.70;44.20
3550;DHT22;45572;48.804;8.330;2023-08-21T09:53:26;47.70;41.20
3550;DHT22;45572;48.804;8.330;2023-08-21T09:55:55;48.20;41.40
3550;DHT22;45572;48.804;8.330;2023-08-21T09:58:24;48.60;41.50
3550;DHT22;45572;48.804;8.330;2023-08-21T10:00:56;48.70;41.30
3550;DHT22;45572;48.804;8.330;2023-08-21T10:03:25;48.70;39.70
3550;DHT22;45572;48.804;8.330;2023-08-21T10:05:56;48.70;41.40
3550;DHT22;45572;48.804;8.330;2023-08-21T10:08:27;48.90;41.10
3550;DHT22;45572;48.804;8.330;2023-08-21T10:10:56;47.70;42.20
3550;DHT22;45572;48.804;8.330;2023-08-21T10:13:30;48.30;42.60
3550;DHT22;45572;48.804;8.330;2023-08-21T10:15:58;48.90;39.80
3550;DHT22;45572;48.804;8.330;2023-08-21T10:18:30;49.30;40.60
3550;DHT22;45572;48.804;8.330;2023-08-21T10:21:10;49.30;41.30
3550;DHT22;45572;48.804;8.330;2023-08-21T10:23:40;49.50;39.20
3550;DHT22;45572;48.804;8.330;2023-08-21T10:26:11;49.50;39.70
3550;DHT22;45572;48.804;8.330;2023-08-21T10:28:47;49.70;39.40
3550;DHT22;45572;48.804;8.330;2023-08-21T10:31:31;49.90;40.40
3550;DHT22;45572;48.804;8.330;2023-08-21T10:34:01;50.40;38.30
3550;DHT22;45572;48.804;8.330;2023-08-21T10:39:28;50.60;38.70
3550;DHT22;45572;48.804;8.330;2023-08-21T10:42:00;50.60;39.50
3550;DHT22;45572;48.804;8.330;2023-08-21T10:44:37;50.80;37.60
3550;DHT22;45572;48.804;8.330;2023-08-21T10:47:16;50.60;38.40
3550;DHT22;45572;48.804;8.330;2023-08-21T10:49:45;50.60;39.10
3550;DHT22;45572;48.804;8.330;2023-08-21T10:52:20;50.40;37.70
3550;DHT22;45572;48.804;8.330;2023-08-21T10:54:51;50.40;37.30
3550;DHT22;45572;48.804;8.330;2023-08-21T10:57:22;50.20;38.60
3550;DHT22;45572;48.804;8.330;2023-08-21T10:59:51;50.30;37.80
3550;DHT22;45572;48.804;8.330;2023-08-21T11:02:20;49.40;39.80
3550;DHT22;45572;48.804;8.330;2023-08-21T11:04:49;49.90;39.60
3550;DHT22;45572;48.804;8.330;2023-08-21T11:07:17;50.00;38.30
3550;DHT22;45572;48.804;8.330;2023-08-21T11:09:45;49.90;38.70
3550;DHT22;45572;48.804;8.330;2023-08-21T11:12:15;50.00;39.90
3550;DHT22;45572;48.804;8.330;2023-08-21T11:14:44;49.70;38.80
3550;DHT22;45572;48.804;8.330;2023-08-21T11:17:12;49.80;38.50
3550;DHT22;45572;48.804;8.330;2023-08-21T11:19:41;50.00;37.90
3550;DHT22;45572;48.804;8.330;2023-08-21T11:22:10;50.10;39.50
3550;DHT22;45572;48.804;8.330;2023-08-21T11:24:41;50.10;38.90
3550;DHT22;45572;48.804;8.330;2023-08-21T11:27:10;50.10;38.30
3550;DHT22;45572;48.804;8.330;2023-08-21T11:29:41;49.90;38.30
3550;DHT22;45572;48.804;8.330;2023-08-21T11:32:11;49.60;38.20
3550;DHT22;45572;48.804;8.330;2023-08-21T11:34:41;49.70;38.90
3550;DHT22;45572;48.804;8.330;2023-08-21T11:37:09;49.50;38.40
3550;DHT22;45572;48.804;8.330;2023-08-21T11:39:41;49.50;38.40
3550;DHT22;45572;48.804;8.330;2023-08-21T11:42:10;49.80;39.10
3550;DHT22;45572;48.804;8.330;2023-08-21T11:44:42;49.70;38.30
3550;DHT22;45572;48.804;8.330;2023-08-21T11:47:11;49.50;38.50
3550;DHT22;45572;48.804;8.330;2023-08-21T11:49:39;49.30;38.60
3550;DHT22;45572;48.804;8.330;2023-08-21T11:52:08;48.60;39.70
3550;DHT22;45572;48.804;8.330;2023-08-21T11:54:37;47.80;39.20
3550;DHT22;45572;48.804;8.330;2023-08-21T11:57:12;48.00;40.30
3550;DHT22;45572;48.804;8.330;2023-08-21T11:59:49;48.40;40.00
3550;DHT22;45572;48.804;8.330;2023-08-21T12:02:22;48.40;40.60
3550;DHT22;45572;48.804;8.330;2023-08-21T12:04:54;48.40;39.50
3550;DHT22;45572;48.804;8.330;2023-08-21T12:07:22;48.60;40.00
3550;DHT22;45572;48.804;8.330;2023-08-21T12:09:50;48.70;39.30
3550;DHT22;45572;48.804;8.330;2023-08-21T12:12:18;48.40;39.20
3550;DHT22;45572;48.804;8.330;2023-08-21T12:14:52;48.20;38.90
3550;DHT22;45572;48.804;8.330;2023-08-21T12:17:21;48.10;39.60
3550;DHT22;45572;48.804;8.330;2023-08-21T12:19:49;47.70;40.50
3550;DHT22;45572;48.804;8.330;2023-08-21T12:22:18;47.30;39.80
3550;DHT22;45572;48.804;8.330;2023-08-21T12:24:47;46.70;40.30
3550;DHT22;45572;48.804;8.330;2023-08-21T12:27:15;46.00;41.30
3550;DHT22;45572;48.804;8.330;2023-08-21T12:29:43;44.80;43.10
3550;DHT22;45572;48.804;8.330;2023-08-21T12:32:15;44.00;42.90
3550;DHT22;45572;48.804;8.330;2023-08-21T12:34:43;42.40;48.30
3550;DHT22;45572;48.804;8.330;2023-08-21T12:37:11;41.60;49.50
3550;DHT22;45572;48.804;8.330;2023-08-21T12:39:42;41.00;48.90
3550;DHT22;45572;48.804;8.330;2023-08-21T12:42:10;40.40;49.80
3550;DHT22;45572;48.804;8.330;2023-08-21T12:44:39;39.80;50.10
3550;DHT22;45572;48.804;8.330;2023-08-21T12:47:10;39.50;50.20
3550;DHT22;45572;48.804;8.330;2023-08-21T12:49:41;38.90;51.70
3550;DHT22;45572;48.804;8.330;2023-08-21T12:52:09;38.50;52.40
3550;DHT22;45572;48.804;8.330;2023-08-21T12:54:40;38.00;52.50
3550;DHT22;45572;48.804;8.330;2023-08-21T12:57:08;37.90;54.20
3550;DHT22;45572;48.804;8.330;2023-08-21T12:59:37;37.50;55.70
3550;DHT22;45572;48.804;8.330;2023-08-21T13:02:05;37.40;55.50
3550;DHT22;45572;48.804;8.330;2023-08-21T13:04:34;37.30;54.90
3550;DHT22;45572;48.804;8.330;2023-08-21T13:07:04;37.10;56.10
3550;DHT22;45572;48.804;8.330;2023-08-21T13:09:32;37.10;54.90
3550;DHT22;45572;48.804;8.330;2023-08-21T13:12:00;36.80;54.30
3550;DHT22;45572;48.804;8.330;2023-08-21T13:14:28;36.70;54.10
3550;DHT22;45572;48.804;8.330;2023-08-21T13:16:59;36.40;56.10
3550;DHT22;45572;48.804;8.330;2023-08-21T13:19:30;36.40;55.80
3550;DHT22;45572;48.804;8.330;2023-08-21T13:21:58;36.40;55.50
3550;DHT22;45572;48.804;8.330;2023-08-21T13:24:27;36.20;55.30
3550;DHT22;45572;48.804;8.330;2023-08-21T13:26:59;36.20;54.50
3550;DHT22;45572;48.804;8.330;2023-08-21T13:29:27;36.30;55.70
3550;DHT22;45572;48.804;8.330;2023-08-21T13:31:56;36.30;55.40
3550;DHT22;45572;48.804;8.330;2023-08-21T13:34:25;36.30;54.50
3550;DHT22;45572;48.804;8.330;2023-08-21T13:36:53;36.20;54.40
3550;DHT22;45572;48.804;8.330;2023-08-21T13:39:20;36.20;55.00
3550;DHT22;45572;48.804;8.330;2023-08-21T13:41:50;36.10;55.70
3550;DHT22;45572;48.804;8.330;2023-08-21T13:44:17;36.20;54.30
3550;DHT22;45572;48.804;8.330;2023-08-21T13:46:46;36.00;54.40
3550;DHT22;45572;48.804;8.330;2023-08-21T13:49:14;36.00;53.70
3550;DHT22;45572;48.804;8.330;2023-08-21T13:51:41;35.90;54.50
3550;DHT22;45572;48.804;8.330;2023-08-21T13:54:09;35.80;54.60
3550;DHT22;45572;48.804;8.330;2023-08-21T13:56:38;35.70;54.10
3550;DHT22;45572;48.804;8.330;2023-08-21T13:59:09;35.60;52.50
3550;DHT22;45572;48.804;8.330;2023-08-21T14:01:36;35.60;53.40
3550;DHT22;45572;48.804;8.330;2023-08-21T14:04:04;35.60;53.20
3550;DHT22;45572;48.804;8.330;2023-08-21T14:06:33;35.70;54.60
3550;DHT22;45572;48.804;8.330;2023-08-21T14:09:02;35.60;55.60
3550;DHT22;45572;48.804;8.330;2023-08-21T14:11:31;35.60;54.90
3550;DHT22;45572;48.804;8.330;2023-08-21T14:13:59;35.50;55.30
3550;DHT22;45572;48.804;8.330;2023-08-21T14:16:28;35.60;54.90
3550;DHT22;45572;48.804;8.330;2023-08-21T14:18:56;35.50;56.20
3550;DHT22;45572;48.804;8.330;2023-08-21T14:21:24;35.50;54.60
3550;DHT22;45572;48.804;8.330;2023-08-21T14:23:52;35.50;55.70
3550;DHT22;45572;48.804;8.330;2023-08-21T14:26:20;35.40;56.20
3550;DHT22;45572;48.804;8.330;2023-08-21T14:28:48;35.30;55.80
3550;DHT22;45572;48.804;8.330;2023-08-21T14:31:17;35.20;56.30
3550;DHT22;45572;48.804;8.330;2023-08-21T14:33:46;35.20;56.50
3550;DHT22;45572;48.804;8.330;2023-08-21T14:36:13;35.10;55.10
3550;DHT22;45572;48.804;8.330;2023-08-21T14:38:42;35.10;56.00
3550;DHT22;45572;48.804;8.330;2023-08-21T14:41:10;35.00;55.70
3550;DHT22;45572;48.804;8.330;2023-08-21T14:43:38;35.00;55.80
3550;DHT22;45572;48.804;8.330;2023-08-21T14:46:06;35.00;56.30
3550;DHT22;45572;48.804;8.330;2023-08-21T14:48:34;34.80;56.30
3550;DHT22;45572;48.804;8.330;2023-08-21T14:51:04;34.80;56.20
3550;DHT22;45572;48.804;8.330;2023-08-21T14:53:32;34.80;56.50
3550;DHT22;45572;48.804;8.330;2023-08-21T14:55:59;34.80;56.10
3550;DHT22;45572;48.804;8.330;2023-08-21T14:58:29;34.80;56.40
3550;DHT22;45572;48.804;8.330;2023-08-21T15:00:57;34.80;55.50
3550;DHT22;45572;48.804;8.330;2023-08-21T15:03:25;34.70;56.10
3550;DHT22;45572;48.804;8.330;2023-08-21T15:05:57;34.70;55.00
3550;DHT22;45572;48.804;8.330;2023-08-21T15:08:28;34.70;55.60
3550;DHT22;45572;48.804;8.330;2023-08-21T15:10:57;34.60;55.10
3550;DHT22;45572;48.804;8.330;2023-08-21T15:13:25;34.70;54.80
3550;DHT22;45572;48.804;8.330;2023-08-21T15:15:53;34.60;54.50
3550;DHT22;45572;48.804;8.330;2023-08-21T15:18:21;34.60;55.40
3550;DHT22;45572;48.804;8.330;2023-08-21T15:20:50;34.50;55.40
3550;DHT22;45572;48.804;8.330;2023-08-21T15:23:18;34.50;54.30
3550;DHT22;45572;48.804;8.330;2023-08-21T15:25:51;34.50;54.40
3550;DHT22;45572;48.804;8.330;2023-08-21T15:28:19;34.40;54.60
3550;DHT22;45572;48.804;8.330;2023-08-21T15:30:47;34.40;54.30
3550;DHT22;45572;48.804;8.330;2023-08-21T15:33:14;34.40;54.40
3550;DHT22;45572;48.804;8.330;2023-08-21T15:35:42;34.30;54.30
3550;DHT22;45572;48.804;8.330;2023-08-21T15:38:10;34.30;55.80
3550;DHT22;45572;48.804;8.330;2023-08-21T15:40:38;34.20;53.90
3550;DHT22;45572;48.804;8.330;2023-08-21T15:43:12;34.10;54.90
3550;DHT22;45572;48.804;8.330;2023-08-21T15:45:40;34.20;55.50
3550;DHT22;45572;48.804;8.330;2023-08-21T15:48:08;34.10;54.80
3550;DHT22;45572;48.804;8.330;2023-08-21T15:50:39;34.20;55.00
3550;DHT22;45572;48.804;8.330;2023-08-21T15:53:06;34.20;55.40
3550;DHT22;45572;48.804;8.330;2023-08-21T15:55:34;34.20;56.10
3550;DHT22;45572;48.804;8.330;2023-08-21T15:58:05;34.10;56.70
3550;DHT22;45572;48.804;8.330;2023-08-21T16:00:37;34.10;57.50